createdAt,value
2023-04-11T00:01:27.083Z,5.67
2023-04-11T00:03:55.127Z,5.50
2023-04-11T00:06:23.256Z,5.73
2023-04-11T00:08:51.123Z,5.33
2023-04-11T00:11:19.000Z,5.20
2023-04-11T00:13:47.668Z,5.60
2023-04-11T00:16:16.996Z,5.60
2023-04-11T00:18:45.013Z,5.80
2023-04-11T00:21:12.893Z,5.83
2023-04-11T00:23:40.745Z,5.70
2023-04-11T00:26:08.714Z,5.60
2023-04-11T00:28:36.582Z,5.70
2023-04-11T00:31:04.463Z,5.90
2023-04-11T00:33:33.695Z,5.60
2023-04-11T00:36:01.616Z,5.83
2023-04-11T00:38:29.515Z,5.43
2023-04-11T00:40:57.395Z,6.20
2023-04-11T00:43:25.376Z,6.43
2023-04-11T00:45:53.431Z,6.03
2023-04-11T00:48:21.478Z,5.73
2023-04-11T00:50:50.780Z,5.40
2023-04-11T00:53:19.131Z,6.00
2023-04-11T00:55:47.185Z,5.67
2023-04-11T00:58:16.744Z,6.07
2023-04-11T01:00:44.689Z,5.87
2023-04-11T01:03:12.858Z,6.17
2023-04-11T01:05:41.149Z,5.37
2023-04-11T01:08:10.928Z,6.23
2023-04-11T01:10:39.799Z,6.50
2023-04-11T01:13:07.963Z,5.50
2023-04-11T01:15:36.098Z,5.60
2023-04-11T01:18:06.002Z,6.10
2023-04-11T01:20:34.612Z,5.90
2023-04-11T01:23:03.713Z,6.27
2023-04-11T01:25:33.121Z,6.23
2023-04-11T01:28:01.051Z,6.87
2023-04-11T01:30:28.969Z,6.40
2023-04-11T01:32:56.951Z,6.70
2023-04-11T01:35:24.890Z,6.17
2023-04-11T01:37:53.043Z,6.90
2023-04-11T01:40:21.507Z,5.97
2023-04-11T01:42:52.016Z,6.80
2023-04-11T01:45:21.001Z,6.97
2023-04-11T01:47:50.836Z,6.00
2023-04-11T01:50:18.861Z,7.20
2023-04-11T01:52:46.692Z,6.07
2023-04-11T01:55:14.600Z,6.53
2023-04-11T01:57:42.466Z,6.03
2023-04-11T02:00:13.975Z,6.33
2023-04-11T02:02:42.234Z,6.87
2023-04-11T02:05:10.554Z,6.27
2023-04-11T02:07:38.635Z,6.70
2023-04-11T02:10:07.895Z,6.53
2023-04-11T02:12:35.756Z,6.83
2023-04-11T02:15:03.704Z,6.60
2023-04-11T02:17:33.035Z,7.03
2023-04-11T02:20:01.126Z,6.33
2023-04-11T02:22:29.110Z,6.20
2023-04-11T02:24:57.547Z,6.27
2023-04-11T02:27:25.405Z,6.50
2023-04-11T02:29:53.258Z,6.63
2023-04-11T02:32:21.189Z,6.50
2023-04-11T02:34:50.691Z,6.70
2023-04-11T02:37:18.533Z,6.87
2023-04-11T02:39:46.395Z,6.63
2023-04-11T02:42:14.323Z,7.50
2023-04-11T02:44:42.189Z,7.80
2023-04-11T02:47:10.161Z,7.67
2023-04-11T02:49:38.076Z,7.80
2023-04-11T02:52:07.272Z,7.77
2023-04-11T02:54:35.113Z,7.20
2023-04-11T02:57:03.753Z,7.33
2023-04-11T02:59:31.832Z,8.40
2023-04-11T03:02:00.081Z,7.60
2023-04-11T03:04:28.592Z,8.13
2023-04-11T03:06:56.678Z,7.50
2023-04-11T03:09:26.030Z,8.27
2023-04-11T03:11:53.851Z,8.20
2023-04-11T03:14:21.701Z,8.07
2023-04-11T03:16:49.490Z,8.13
2023-04-11T03:19:17.317Z,8.40
2023-04-11T03:21:45.292Z,8.10
2023-04-11T03:24:13.677Z,8.50
2023-04-11T03:26:44.586Z,8.30
2023-04-11T03:29:12.401Z,9.17
2023-04-11T03:31:40.299Z,8.67
2023-04-11T03:34:08.480Z,8.50
2023-04-11T03:36:36.370Z,8.00
2023-04-11T03:39:04.637Z,9.13
2023-04-11T03:41:32.626Z,8.80
2023-04-11T03:44:01.861Z,8.50
2023-04-11T03:46:29.778Z,8.60
2023-04-11T03:48:57.914Z,8.77
2023-04-11T03:51:26.584Z,9.40
2023-04-11T03:53:54.466Z,9.57
2023-04-11T03:56:22.334Z,10.13
2023-04-11T03:58:50.203Z,10.53
2023-04-11T04:01:19.449Z,10.70
2023-04-11T04:03:47.592Z,9.27
2023-04-11T04:06:15.673Z,9.30
2023-04-11T04:08:43.677Z,9.10
2023-04-11T04:11:11.551Z,9.90
2023-04-11T04:13:39.397Z,8.80
2023-04-11T04:16:08.087Z,9.53
2023-04-11T04:18:37.335Z,9.33
2023-04-11T04:21:07.210Z,10.00
2023-04-11T04:23:36.115Z,9.17
2023-04-11T04:26:04.142Z,9.53
2023-04-11T04:28:32.019Z,10.03
2023-04-11T04:31:02.215Z,10.00
2023-04-11T04:33:33.093Z,9.53
2023-04-11T04:36:04.389Z,10.23
2023-04-11T04:38:32.982Z,9.73
2023-04-11T04:41:00.932Z,8.97
2023-04-11T04:43:32.393Z,10.37
2023-04-11T04:46:00.565Z,10.20
2023-04-11T04:48:28.435Z,10.43
2023-04-11T04:50:56.269Z,10.77
2023-04-11T04:53:25.867Z,10.30
2023-04-11T04:55:53.704Z,10.53
2023-04-11T04:58:21.556Z,11.17
2023-04-11T05:00:55.912Z,10.33
2023-04-11T05:03:24.205Z,11.00
2023-04-11T05:05:52.203Z,12.03
2023-04-11T05:08:21.336Z,10.80
2023-04-11T05:10:50.568Z,11.20
2023-04-11T05:13:18.454Z,10.77
2023-04-11T05:15:49.151Z,11.70
2023-04-11T05:18:17.006Z,11.30
2023-04-11T05:20:44.867Z,11.00
2023-04-11T05:23:12.703Z,10.87
2023-04-11T05:25:40.726Z,11.13
2023-04-11T05:28:09.954Z,11.37
2023-04-11T05:30:37.865Z,11.87
2023-04-11T05:33:06.020Z,10.97
2023-04-11T05:35:33.947Z,11.40
2023-04-11T05:38:01.868Z,11.33
2023-04-11T05:40:29.766Z,11.67
2023-04-11T05:42:57.873Z,11.60
2023-04-11T05:45:27.173Z,11.47
2023-04-11T05:47:55.111Z,11.07
2023-04-11T05:50:23.183Z,10.57
2023-04-11T05:52:51.249Z,11.00
2023-04-11T05:55:19.541Z,10.33
2023-04-11T05:57:47.364Z,11.07
2023-04-11T06:00:16.491Z,10.97
2023-04-11T06:02:46.407Z,11.23
2023-04-11T06:05:16.158Z,10.83
2023-04-11T06:07:44.204Z,10.27
2023-04-11T06:10:12.111Z,10.20
2023-04-11T06:12:40.146Z,10.50
2023-04-11T06:15:09.908Z,10.40
2023-04-11T06:17:38.275Z,11.50
2023-04-11T06:20:09.031Z,10.27
2023-04-11T06:22:37.223Z,10.97
2023-04-11T06:25:05.558Z,10.93
2023-04-11T06:27:33.430Z,11.00
2023-04-11T06:30:01.399Z,10.93
2023-04-11T06:32:29.388Z,11.00
2023-04-11T06:34:57.310Z,10.53
2023-04-11T06:37:27.215Z,11.10
2023-04-11T06:39:55.072Z,11.13
2023-04-11T06:42:22.941Z,10.10
2023-04-11T06:44:50.769Z,10.73
2023-04-11T06:47:18.636Z,11.27
2023-04-11T06:49:46.503Z,11.63
2023-04-11T06:52:16.902Z,12.97
2023-04-11T06:54:46.159Z,13.93
2023-04-11T06:57:14.109Z,11.93
2023-04-11T06:59:41.948Z,11.93
2023-04-11T07:02:09.866Z,11.23
2023-04-11T07:04:38.010Z,10.17
2023-04-11T07:07:06.024Z,7.50
2023-04-11T07:09:33.904Z,6.10
2023-04-11T07:12:03.127Z,6.13
2023-04-11T07:14:31.070Z,5.33
2023-04-11T07:16:58.932Z,4.33
2023-04-11T07:19:26.785Z,3.20
2023-04-11T07:21:54.634Z,3.50
2023-04-11T07:24:22.492Z,3.20
2023-04-11T07:26:53.396Z,2.87
2023-04-11T07:29:22.604Z,1.80
2023-04-11T07:31:51.480Z,1.63
2023-04-11T07:34:19.377Z,1.10
2023-04-11T07:36:47.650Z,1.50
2023-04-11T07:39:16.101Z,1.13
2023-04-11T07:41:44.800Z,0.97
2023-04-11T07:44:12.788Z,1.00
2023-04-11T07:46:42.022Z,0.90
2023-04-11T07:49:09.845Z,0.90
2023-04-11T07:51:37.712Z,1.30
2023-04-11T07:54:05.720Z,1.10
2023-04-11T07:56:33.580Z,1.10
2023-04-11T07:59:01.604Z,1.40
2023-04-11T08:01:29.567Z,1.00
2023-04-11T08:03:59.046Z,1.20
2023-04-11T08:06:28.982Z,1.37
2023-04-11T08:08:58.849Z,0.80
2023-04-11T08:11:26.824Z,1.30
2023-04-11T08:13:54.870Z,1.43
2023-04-11T08:16:22.977Z,1.60
2023-04-11T08:18:50.895Z,1.27
2023-04-11T08:21:20.190Z,2.03
2023-04-11T08:23:48.023Z,2.30
2023-04-11T08:26:17.003Z,2.00
2023-04-11T08:28:44.860Z,2.07
2023-04-11T08:31:13.423Z,1.63
2023-04-11T08:33:41.567Z,1.80
2023-04-11T08:36:48.862Z,2.33
2023-04-11T08:39:18.146Z,1.70
2023-04-11T08:41:47.435Z,1.53
2023-04-11T08:44:15.425Z,1.27
2023-04-11T08:46:44.553Z,1.50
2023-04-11T08:49:12.511Z,1.20
2023-04-11T08:51:44.551Z,1.07
2023-04-11T08:54:12.840Z,1.20
2023-04-11T08:56:43.921Z,1.23
2023-04-11T08:59:11.755Z,1.17
2023-04-11T09:01:40.694Z,1.10
2023-04-11T09:04:10.594Z,1.73
2023-04-11T09:06:40.238Z,1.30
2023-04-11T09:09:08.775Z,1.30
2023-04-11T09:11:53.839Z,1.17
2023-04-11T09:14:25.706Z,1.20
2023-04-11T09:16:59.545Z,1.60
2023-04-11T09:19:29.014Z,1.20
2023-04-11T09:22:00.326Z,1.20
2023-04-11T09:24:28.562Z,1.40
2023-04-11T09:27:12.248Z,1.17
2023-04-11T09:29:41.558Z,1.10
2023-04-11T09:32:27.164Z,0.90
2023-04-11T09:35:09.244Z,0.93
2023-04-11T09:37:45.087Z,0.90
2023-04-11T09:40:13.400Z,0.97
2023-04-11T09:42:43.085Z,1.00
2023-04-11T09:45:21.550Z,1.00
2023-04-11T09:47:51.788Z,0.80
2023-04-11T09:50:20.643Z,0.90
2023-04-11T09:52:48.576Z,0.80
2023-04-11T09:55:19.386Z,0.60
2023-04-11T09:57:50.318Z,1.10
2023-04-11T10:00:21.862Z,0.90
2023-04-11T10:02:52.915Z,1.17
2023-04-11T10:05:22.139Z,0.82
2023-04-11T10:07:54.797Z,0.90
2023-04-11T10:10:24.443Z,1.15
2023-04-11T10:12:53.704Z,0.73
2023-04-11T10:15:22.502Z,1.00
2023-04-11T10:18:09.503Z,1.30
2023-04-11T10:20:46.057Z,1.60
2023-04-11T10:23:16.483Z,1.50
2023-04-11T10:25:55.347Z,0.98
2023-04-11T10:28:38.994Z,0.97
2023-04-11T10:31:09.947Z,1.47
2023-04-11T10:33:39.244Z,1.73
2023-04-11T10:36:10.221Z,1.37
2023-04-11T10:38:49.354Z,0.97
2023-04-11T10:41:28.923Z,1.10
2023-04-11T10:44:18.445Z,1.33
2023-04-11T10:46:48.104Z,1.00
2023-04-11T10:49:38.300Z,1.50
2023-04-11T10:52:18.353Z,1.23
2023-04-11T10:54:47.225Z,1.03
2023-04-11T10:57:15.376Z,1.87
2023-04-11T11:00:15.861Z,1.60
2023-04-11T11:02:44.089Z,1.20
2023-04-11T11:05:25.386Z,1.73
2023-04-11T11:07:55.141Z,1.70
2023-04-11T11:10:43.069Z,0.93
2023-04-11T11:13:11.277Z,1.07
2023-04-11T11:15:47.173Z,1.30
2023-04-11T11:18:17.107Z,1.10
2023-04-11T11:20:45.097Z,1.30
2023-04-11T11:23:12.973Z,0.83
2023-04-11T11:25:41.216Z,1.03
2023-04-11T11:28:10.241Z,1.10
2023-04-11T11:30:51.150Z,0.80
2023-04-11T11:33:21.601Z,0.87
2023-04-11T11:35:54.419Z,1.17
2023-04-11T11:38:26.047Z,1.17
2023-04-11T11:40:54.410Z,1.10
2023-04-11T11:43:22.293Z,1.70
2023-04-11T11:46:09.249Z,1.60
2023-04-11T11:48:37.604Z,1.20
2023-04-11T11:51:06.160Z,1.17
2023-04-11T11:53:34.413Z,1.10
2023-04-11T11:56:13.480Z,1.35
2023-04-11T11:58:45.642Z,1.20
2023-04-11T12:01:17.206Z,1.27
2023-04-11T12:03:45.599Z,1.20
2023-04-11T12:06:13.981Z,1.17
2023-04-11T12:08:45.809Z,1.50
2023-04-11T12:11:16.161Z,1.00
2023-04-11T12:13:45.587Z,1.40
2023-04-11T12:16:16.091Z,0.90
2023-04-11T12:18:45.208Z,1.50
2023-04-11T12:21:13.399Z,1.33
2023-04-11T12:23:41.260Z,1.03
2023-04-11T12:26:09.116Z,1.10
2023-04-11T12:28:36.958Z,1.23
2023-04-11T12:31:05.063Z,1.20
2023-04-11T12:33:34.427Z,1.23
2023-04-11T12:36:02.456Z,0.77
2023-04-11T12:38:30.440Z,0.90
2023-04-11T12:43:46.214Z,1.50
2023-04-11T12:44:22.853Z,1.20
2023-04-11T12:46:14.602Z,1.50
2023-04-11T12:48:43.904Z,1.33
2023-04-11T12:51:11.840Z,1.27
2023-04-11T12:53:39.646Z,1.17
2023-04-11T12:56:08.613Z,1.43
2023-04-11T12:58:36.479Z,1.37
2023-04-11T13:01:08.022Z,1.10
2023-04-11T13:03:36.097Z,1.60
2023-04-11T13:06:06.210Z,1.20
2023-04-11T13:08:34.041Z,1.17
2023-04-11T13:11:02.047Z,1.43
2023-04-11T13:13:29.905Z,1.37
2023-04-11T13:16:00.876Z,1.40
2023-04-11T13:18:29.189Z,1.27
2023-04-11T13:20:57.031Z,1.10
2023-04-11T13:23:26.247Z,1.10
2023-04-11T13:25:54.284Z,1.30
2023-04-11T13:28:22.262Z,1.40
2023-04-11T13:30:50.141Z,1.30
2023-04-11T13:33:18.098Z,1.00
2023-04-11T13:35:46.284Z,1.27
2023-04-11T13:38:14.143Z,1.30
2023-04-11T13:40:43.753Z,0.97
2023-04-11T13:43:11.830Z,1.20
2023-04-11T13:45:39.713Z,1.10
2023-04-11T13:48:07.593Z,1.00
2023-04-11T13:50:35.773Z,0.97
2023-04-11T13:53:03.689Z,1.10
2023-04-11T13:55:31.585Z,1.23
2023-04-11T13:58:01.018Z,0.90
2023-04-11T14:00:29.151Z,1.17
2023-04-11T14:02:57.119Z,1.20
2023-04-11T14:05:27.030Z,1.20
2023-04-11T14:07:54.896Z,1.00
2023-04-11T14:10:22.736Z,1.27
2023-04-11T14:12:50.642Z,1.20
2023-04-11T14:15:20.567Z,0.90
2023-04-11T14:17:49.692Z,1.00
2023-04-11T14:20:17.608Z,1.10
2023-04-11T14:22:46.508Z,1.20
2023-04-11T14:25:15.759Z,1.10
2023-04-11T14:27:43.748Z,1.00
2023-04-11T14:30:13.489Z,0.70
2023-04-11T14:32:43.163Z,0.93
2023-04-11T14:35:11.282Z,0.87
2023-04-11T14:37:39.160Z,0.80
2023-04-11T14:40:10.106Z,0.80
2023-04-11T14:42:38.110Z,0.80
2023-04-11T14:45:07.058Z,0.77
2023-04-11T14:47:37.144Z,0.90
2023-04-11T14:50:07.647Z,0.80
2023-04-11T14:52:35.577Z,0.73
2023-04-11T14:55:03.659Z,0.80
2023-04-11T14:57:45.127Z,1.37
2023-04-11T15:00:18.938Z,1.53
2023-04-11T15:02:48.378Z,0.80
2023-04-11T15:05:19.804Z,0.80
2023-04-11T15:07:48.978Z,0.93
2023-04-11T15:10:18.894Z,1.80
2023-04-11T15:12:47.011Z,2.07
2023-04-11T15:15:15.750Z,2.90
2023-04-11T15:17:46.603Z,1.00
2023-04-11T15:20:15.611Z,1.10
2023-04-11T15:22:46.629Z,1.40
2023-04-11T15:25:16.146Z,0.80
2023-04-11T15:27:44.243Z,0.70
2023-04-11T15:30:12.821Z,1.90
2023-04-11T15:32:43.691Z,1.10
2023-04-11T15:35:12.276Z,0.87
2023-04-11T15:37:41.169Z,0.73
2023-04-11T15:40:12.287Z,1.03
2023-04-11T15:42:40.332Z,1.00
2023-04-11T15:45:09.113Z,0.97
2023-04-11T15:47:37.001Z,0.93
2023-04-11T15:50:05.348Z,1.00
2023-04-11T15:52:33.278Z,1.10
2023-04-11T15:55:01.116Z,0.70
2023-04-11T15:57:30.346Z,0.73
2023-04-11T15:59:59.643Z,1.10
2023-04-11T16:02:28.162Z,0.90
2023-04-11T16:04:56.430Z,1.13
2023-04-11T16:07:24.526Z,1.03
2023-04-11T16:09:52.382Z,0.90
2023-04-11T16:12:20.331Z,0.97
2023-04-11T16:14:49.592Z,0.80
2023-04-11T16:17:19.062Z,0.80
2023-04-11T16:19:46.962Z,0.60
2023-04-11T16:22:14.835Z,0.63
2023-04-11T16:24:42.721Z,0.80
2023-04-11T16:27:10.594Z,0.80
2023-04-11T16:29:38.411Z,0.53
2023-04-11T16:32:07.846Z,1.20
2023-04-11T16:34:35.764Z,1.20
2023-04-11T16:37:03.715Z,2.30
2023-04-11T16:39:31.650Z,2.20
2023-04-11T16:41:59.621Z,1.80
2023-04-11T16:44:27.749Z,1.00
2023-04-11T16:46:55.622Z,2.43
2023-04-11T16:49:24.860Z,1.90
2023-04-11T16:51:52.733Z,1.30
2023-04-11T16:54:20.567Z,1.10
2023-04-11T16:56:48.438Z,1.10
2023-04-11T16:59:16.618Z,0.90
2023-04-11T17:01:45.070Z,1.43
2023-04-11T17:04:13.692Z,1.67
2023-04-11T17:06:44.033Z,1.10
2023-04-11T17:09:11.904Z,1.70
2023-04-11T17:11:40.385Z,2.13
2023-04-11T17:14:08.250Z,2.40
2023-04-11T17:16:36.140Z,1.70
2023-04-11T17:19:04.112Z,1.57
2023-04-11T17:21:33.124Z,2.60
2023-04-11T17:24:02.356Z,3.13
2023-04-11T17:26:30.377Z,3.30
2023-04-11T17:28:58.495Z,1.70
2023-04-11T17:31:29.373Z,1.50
2023-04-11T17:33:57.611Z,2.17
2023-04-11T17:36:28.376Z,2.83
2023-04-11T17:38:56.386Z,3.50
2023-04-11T17:41:25.579Z,3.03
2023-04-11T17:43:56.727Z,4.23
2023-04-11T17:46:25.000Z,3.40
2023-04-11T17:48:52.945Z,3.70
2023-04-11T17:51:21.110Z,5.70
2023-04-11T17:53:49.277Z,5.10
2023-04-11T17:56:17.140Z,5.43
2023-04-11T17:58:48.111Z,6.67
2023-04-11T18:01:16.126Z,8.43
2023-04-11T18:03:44.358Z,2.90
2023-04-11T18:06:12.286Z,2.67
2023-04-11T18:11:12.269Z,2.40
2023-04-11T18:13:40.131Z,3.40
2023-04-11T18:16:11.390Z,4.63
2023-04-11T18:18:39.413Z,3.50
2023-04-11T18:21:08.117Z,1.90
2023-04-11T18:23:36.196Z,3.33
2023-04-11T18:26:04.008Z,3.33
2023-04-11T18:28:31.886Z,3.40
2023-04-11T18:30:59.797Z,3.57
2023-04-11T18:33:29.156Z,4.70
2023-04-11T18:35:57.209Z,3.43
2023-04-11T18:38:25.134Z,3.27
2023-04-11T18:40:55.753Z,3.07
2023-04-11T18:43:24.833Z,3.23
2023-04-11T18:45:52.783Z,3.60
2023-04-11T18:48:20.663Z,4.23
2023-04-11T18:50:58.935Z,4.00
2023-04-11T18:53:28.337Z,4.33
2023-04-11T18:55:56.146Z,2.80
2023-04-11T18:58:26.092Z,2.70
2023-04-11T19:00:55.115Z,3.10
2023-04-11T19:03:24.299Z,2.70
2023-04-11T19:05:54.252Z,2.20
2023-04-11T19:08:22.176Z,2.37
2023-04-11T19:10:50.012Z,2.30
2023-04-11T19:13:18.600Z,2.17
2023-04-11T19:15:46.958Z,2.07
2023-04-11T19:18:14.940Z,1.90
2023-04-11T19:20:42.944Z,2.13
2023-04-11T19:23:12.527Z,2.70
2023-04-11T19:25:40.645Z,2.90
2023-04-11T19:28:08.523Z,3.50
2023-04-11T19:30:36.377Z,2.60
2023-04-11T19:33:04.300Z,3.10
2023-04-11T19:35:32.317Z,2.90
2023-04-11T19:38:02.608Z,3.17
2023-04-11T19:40:32.000Z,3.73
2023-04-11T19:42:59.837Z,3.33
2023-04-11T19:45:28.534Z,2.47
2023-04-11T19:47:57.843Z,3.57
2023-04-11T19:50:25.699Z,3.97
2023-04-11T19:52:57.241Z,4.83
2023-04-11T19:55:25.154Z,5.00
2023-04-11T19:57:54.484Z,5.17
2023-04-11T20:00:22.337Z,4.87
2023-04-11T20:02:50.322Z,4.77
2023-04-11T20:05:19.537Z,4.30
2023-04-11T20:07:48.025Z,3.80
2023-04-11T20:10:17.100Z,4.37
2023-04-11T20:12:44.992Z,3.70
2023-04-11T20:15:14.857Z,3.70
2023-04-11T20:17:44.467Z,3.63
2023-04-11T20:20:14.038Z,3.73
2023-04-11T20:22:44.683Z,3.50
2023-04-11T20:25:12.797Z,4.73
2023-04-11T20:27:41.200Z,4.77
2023-04-11T20:30:10.782Z,4.93
2023-04-11T20:32:41.089Z,4.70
2023-04-11T20:35:10.038Z,4.63
2023-04-11T20:37:38.145Z,4.80
2023-04-11T20:40:08.061Z,4.80
2023-04-11T20:42:39.993Z,4.63
2023-04-11T20:45:10.403Z,4.50
2023-04-11T20:47:38.434Z,3.90
2023-04-11T20:50:10.432Z,4.00
2023-04-11T20:52:41.209Z,3.83
2023-04-11T20:55:10.547Z,4.50
2023-04-11T20:57:38.667Z,4.80
2023-04-11T21:00:12.239Z,4.93
2023-04-11T21:02:41.642Z,4.23
2023-04-11T21:05:11.997Z,4.13
2023-04-11T21:07:40.658Z,4.13
2023-04-11T21:10:09.852Z,4.30
2023-04-11T21:12:37.967Z,4.37
2023-04-11T21:15:07.304Z,4.47
2023-04-11T21:17:37.318Z,4.40
2023-04-11T21:20:10.165Z,3.87
2023-04-11T21:22:40.288Z,4.20
2023-04-11T21:25:09.342Z,5.00
2023-04-11T21:27:37.180Z,4.13
2023-04-11T21:30:06.301Z,4.77
2023-04-11T21:32:34.288Z,4.37
2023-04-11T21:35:02.337Z,4.20
2023-04-11T21:37:30.443Z,4.33
2023-04-11T21:39:59.680Z,4.00
2023-04-11T21:42:27.584Z,3.57
2023-04-11T21:44:55.433Z,5.07
2023-04-11T21:47:23.310Z,3.90
2023-04-11T21:49:51.351Z,4.20
2023-04-11T21:52:19.189Z,4.30
2023-04-11T21:54:47.761Z,4.37
2023-04-11T21:57:16.990Z,3.77
2023-04-11T21:59:44.980Z,3.00
2023-04-11T22:02:13.177Z,2.90
2023-04-11T22:04:51.725Z,3.57
2023-04-11T22:07:33.152Z,4.97
2023-04-11T22:10:09.148Z,4.40
2023-04-11T22:12:38.960Z,4.33
2023-04-11T22:15:07.912Z,3.83
2023-04-11T22:17:37.240Z,4.00
2023-04-11T22:20:08.188Z,5.20
2023-04-11T22:22:36.430Z,5.47
2023-04-11T22:25:04.632Z,4.37
2023-04-11T22:27:34.313Z,4.47
2023-04-11T22:30:05.316Z,4.60
2023-04-11T22:32:33.811Z,3.83
2023-04-11T22:35:01.713Z,3.53
2023-04-11T22:37:29.606Z,3.33
2023-04-11T22:39:57.582Z,2.83
2023-04-11T22:42:25.920Z,3.33
2023-04-11T22:44:53.783Z,3.30
2023-04-11T22:47:23.065Z,3.93
2023-04-11T22:49:51.027Z,3.33
2023-04-11T22:52:24.313Z,3.33
2023-04-11T22:54:52.511Z,3.60
2023-04-11T22:57:20.526Z,3.40
2023-04-11T22:59:48.409Z,3.30
2023-04-11T23:02:16.352Z,2.93
2023-04-11T23:04:45.717Z,3.33
2023-04-11T23:07:13.989Z,2.73
2023-04-11T23:09:42.568Z,2.73
2023-04-11T23:12:10.514Z,2.67
2023-04-11T23:14:38.344Z,2.90
2023-04-11T23:17:06.264Z,3.57
2023-04-11T23:19:34.276Z,3.50
2023-04-11T23:22:03.544Z,3.40
2023-04-11T23:24:31.704Z,3.57
2023-04-11T23:26:59.563Z,3.70
2023-04-11T23:29:27.468Z,3.40
2023-04-11T23:31:55.424Z,3.60
2023-04-11T23:34:23.341Z,3.30
2023-04-11T23:36:51.770Z,3.43
2023-04-11T23:39:22.401Z,3.47
2023-04-11T23:41:50.252Z,3.40
2023-04-11T23:44:18.147Z,3.77
2023-04-11T23:46:46.075Z,3.77
2023-04-11T23:49:13.919Z,3.80
2023-04-11T23:51:41.778Z,4.07
2023-04-11T23:54:09.724Z,3.77
2023-04-11T23:56:38.917Z,3.37
2023-04-11T23:59:06.746Z,3.43
